sensor_id;sensor_type;location;lat;lon;timestamp;pressure;altitude;pressure_sealevel;temperature;humidity
18167;BME280;9208;42.688;23.404;2022-10-16T00:02:18;96130.75;;;12.69;100.00
18167;BME280;9208;42.688;23.404;2022-10-16T00:04:44;96135.28;;;12.72;100.00
18167;BME280;9208;42.688;23.404;2022-10-16T00:07:09;96139.34;;;12.62;100.00
18167;BME280;9208;42.688;23.404;2022-10-16T00:09:34;96135.97;;;12.52;100.00
18167;BME280;9208;42.688;23.404;2022-10-16T00:12:00;96135.75;;;12.56;100.00
18167;BME280;9208;42.688;23.404;2022-10-16T00:14:25;96133.38;;;12.49;100.00
18167;BME280;9208;42.688;23.404;2022-10-16T00:16:51;96135.00;;;12.41;100.00
18167;BME280;9208;42.688;23.404;2022-10-16T00:19:16;96138.31;;;12.45;100.00
18167;BME280;9208;42.688;23.404;2022-10-16T00:21:42;96137.84;;;12.46;100.00
18167;BME280;9208;42.688;23.404;2022-10-16T00:24:09;96136.63;;;12.47;100.00
18167;BME280;9208;42.688;23.404;2022-10-16T00:26:36;96142.94;;;12.39;100.00
18167;BME280;9208;42.688;23.404;2022-10-16T00:29:07;96137.44;;;12.39;100.00
18167;BME280;9208;42.688;23.404;2022-10-16T00:31:32;96150.69;;;12.26;100.00
18167;BME280;9208;42.688;23.404;2022-10-16T00:33:58;96149.84;;;12.20;100.00
18167;BME280;9208;42.688;23.404;2022-10-16T00:36:25;96158.34;;;12.07;100.00
18167;BME280;9208;42.688;23.404;2022-10-16T00:38:55;96156.00;;;12.15;100.00
18167;BME280;9208;42.688;23.404;2022-10-16T00:41:23;96159.09;;;12.08;100.00
18167;BME280;9208;42.688;23.404;2022-10-16T00:43:52;96154.44;;;11.99;100.00
18167;BME280;9208;42.688;23.404;2022-10-16T00:51:31;96143.44;;;11.99;100.00
18167;BME280;9208;42.688;23.404;2022-10-16T00:53:58;96140.97;;;11.87;100.00
18167;BME280;9208;42.688;23.404;2022-10-16T00:56:25;96146.03;;;11.79;100.00
18167;BME280;9208;42.688;23.404;2022-10-16T00:58:50;96151.88;;;11.72;100.00
18167;BME280;9208;42.688;23.404;2022-10-16T01:01:16;96154.09;;;11.59;100.00
18167;BME280;9208;42.688;23.404;2022-10-16T01:03:41;96159.25;;;11.66;100.00
18167;BME280;9208;42.688;23.404;2022-10-16T01:08:44;96167.22;;;11.55;100.00
18167;BME280;9208;42.688;23.404;2022-10-16T01:14:17;96167.28;;;11.46;100.00
18167;BME280;9208;42.688;23.404;2022-10-16T01:16:54;96169.59;;;11.39;100.00
18167;BME280;9208;42.688;23.404;2022-10-16T01:19:49;96160.34;;;11.27;100.00
18167;BME280;9208;42.688;23.404;2022-10-16T01:22:19;96155.97;;;11.21;100.00
18167;BME280;9208;42.688;23.404;2022-10-16T01:24:48;96153.84;;;11.16;100.00
18167;BME280;9208;42.688;23.404;2022-10-16T01:27:21;96146.84;;;11.15;100.00
18167;BME280;9208;42.688;23.404;2022-10-16T01:32:28;96147.63;;;11.06;100.00
18167;BME280;9208;42.688;23.404;2022-10-16T01:38:04;96150.47;;;11.21;100.00
18167;BME280;9208;42.688;23.404;2022-10-16T01:40:34;96147.72;;;11.21;100.00
18167;BME280;9208;42.688;23.404;2022-10-16T01:43:08;96151.06;;;11.25;100.00
18167;BME280;9208;42.688;23.404;2022-10-16T01:45:34;96161.09;;;11.28;100.00
18167;BME280;9208;42.688;23.404;2022-10-16T01:48:02;96166.59;;;11.28;100.00
18167;BME280;9208;42.688;23.404;2022-10-16T01:50:33;96162.41;;;11.41;100.00
18167;BME280;9208;42.688;23.404;2022-10-16T01:53:02;96171.13;;;11.40;100.00
18167;BME280;9208;42.688;23.404;2022-10-16T01:55:32;96172.00;;;11.46;100.00
18167;BME280;9208;42.688;23.404;2022-10-16T01:58:00;96171.53;;;11.47;100.00
18167;BME280;9208;42.688;23.404;2022-10-16T02:00:28;96171.56;;;11.38;100.00
18167;BME280;9208;42.688;23.404;2022-10-16T02:02:55;96177.28;;;11.26;100.00
18167;BME280;9208;42.688;23.404;2022-10-16T02:05:32;96182.81;;;11.17;100.00
18167;BME280;9208;42.688;23.404;2022-10-16T02:07:59;96183.25;;;11.24;100.00
18167;BME280;9208;42.688;23.404;2022-10-16T02:10:25;96176.69;;;11.22;100.00
18167;BME280;9208;42.688;23.404;2022-10-16T02:13:20;96182.84;;;11.08;100.00
18167;BME280;9208;42.688;23.404;2022-10-16T02:15:48;96194.00;;;11.04;100.00
18167;BME280;9208;42.688;23.404;2022-10-16T02:18:13;96197.38;;;10.99;100.00
18167;BME280;9208;42.688;23.404;2022-10-16T02:21:10;96193.81;;;11.08;100.00
18167;BME280;9208;42.688;23.404;2022-10-16T02:26:42;96193.13;;;11.31;100.00
18167;BME280;9208;42.688;23.404;2022-10-16T02:29:14;96194.63;;;11.32;100.00
18167;BME280;9208;42.688;23.404;2022-10-16T02:31:45;96202.88;;;11.32;100.00
18167;BME280;9208;42.688;23.404;2022-10-16T02:34:14;96204.56;;;11.29;100.00
18167;BME280;9208;42.688;23.404;2022-10-16T02:36:42;96197.88;;;11.21;100.00
18167;BME280;9208;42.688;23.404;2022-10-16T02:39:09;96197.75;;;11.16;100.00
18167;BME280;9208;42.688;23.404;2022-10-16T02:41:35;96199.28;;;11.17;100.00
18167;BME280;9208;42.688;23.404;2022-10-16T02:44:01;96204.59;;;11.20;100.00
18167;BME280;9208;42.688;23.404;2022-10-16T02:46:27;96198.09;;;11.09;100.00
18167;BME280;9208;42.688;23.404;2022-10-16T02:48:52;96203.28;;;11.07;100.00
18167;BME280;9208;42.688;23.404;2022-10-16T02:51:17;96201.94;;;10.93;100.00
18167;BME280;9208;42.688;23.404;2022-10-16T02:53:43;96203.63;;;10.91;100.00
18167;BME280;9208;42.688;23.404;2022-10-16T02:56:08;96214.91;;;10.93;100.00
18167;BME280;9208;42.688;23.404;2022-10-16T02:58:34;96214.16;;;10.83;100.00
18167;BME280;9208;42.688;23.404;2022-10-16T03:00:59;96219.19;;;10.85;100.00
18167;BME280;9208;42.688;23.404;2022-10-16T03:03:25;96219.66;;;10.74;100.00
18167;BME280;9208;42.688;23.404;2022-10-16T03:05:50;96215.44;;;10.64;100.00
18167;BME280;9208;42.688;23.404;2022-10-16T03:08:16;96207.19;;;10.64;100.00
18167;BME280;9208;42.688;23.404;2022-10-16T03:10:42;96212.84;;;10.61;100.00
18167;BME280;9208;42.688;23.404;2022-10-16T03:13:07;96208.44;;;10.54;100.00
18167;BME280;9208;42.688;23.404;2022-10-16T03:15:33;96222.59;;;10.44;100.00
18167;BME280;9208;42.688;23.404;2022-10-16T03:17:59;96227.94;;;10.38;100.00
18167;BME280;9208;42.688;23.404;2022-10-16T03:20:26;96224.59;;;10.34;100.00
18167;BME280;9208;42.688;23.404;2022-10-16T03:22:51;96227.78;;;10.32;100.00
18167;BME280;9208;42.688;23.404;2022-10-16T03:25:17;96233.13;;;10.27;100.00
18167;BME280;9208;42.688;23.404;2022-10-16T03:27:42;96233.88;;;10.18;100.00
18167;BME280;9208;42.688;23.404;2022-10-16T03:30:08;96228.22;;;10.13;100.00
18167;BME280;9208;42.688;23.404;2022-10-16T03:32:34;96236.44;;;10.13;100.00
18167;BME280;9208;42.688;23.404;2022-10-16T03:34:59;96221.38;;;10.08;100.00
18167;BME280;9208;42.688;23.404;2022-10-16T03:37:25;96227.47;;;10.22;100.00
18167;BME280;9208;42.688;23.404;2022-10-16T03:39:50;96231.56;;;10.17;100.00
18167;BME280;9208;42.688;23.404;2022-10-16T03:42:16;96232.34;;;10.08;100.00
18167;BME280;9208;42.688;23.404;2022-10-16T03:44:42;96232.34;;;10.08;100.00
18167;BME280;9208;42.688;23.404;2022-10-16T03:47:07;96228.38;;;10.09;100.00
18167;BME280;9208;42.688;23.404;2022-10-16T03:49:32;96225.59;;;10.00;100.00
18167;BME280;9208;42.688;23.404;2022-10-16T03:51:58;96227.44;;;9.94;100.00
18167;BME280;9208;42.688;23.404;2022-10-16T03:54:23;96228.94;;;9.95;100.00
18167;BME280;9208;42.688;23.404;2022-10-16T03:56:49;96225.44;;;9.95;100.00
18167;BME280;9208;42.688;23.404;2022-10-16T03:59:14;96229.53;;;9.90;100.00
18167;BME280;9208;42.688;23.404;2022-10-16T04:01:40;96224.34;;;9.83;100.00
18167;BME280;9208;42.688;23.404;2022-10-16T04:04:05;96223.59;;;9.74;100.00
18167;BME280;9208;42.688;23.404;2022-10-16T04:06:31;96223.25;;;9.72;100.00
18167;BME280;9208;42.688;23.404;2022-10-16T04:08:56;96229.38;;;9.85;100.00
18167;BME280;9208;42.688;23.404;2022-10-16T04:11:22;96226.03;;;9.90;100.00
18167;BME280;9208;42.688;23.404;2022-10-16T04:13:50;96223.63;;;10.01;100.00
18167;BME280;9208;42.688;23.404;2022-10-16T04:16:16;96230.34;;;10.00;100.00
18167;BME280;9208;42.688;23.404;2022-10-16T04:18:41;96225.03;;;10.05;100.00
18167;BME280;9208;42.688;23.404;2022-10-16T04:21:07;96233.13;;;10.09;100.00
18167;BME280;9208;42.688;23.404;2022-10-16T04:23:32;96232.97;;;10.13;100.00
18167;BME280;9208;42.688;23.404;2022-10-16T04:25:59;96230.66;;;10.11;100.00
18167;BME280;9208;42.688;23.404;2022-10-16T04:28:25;96231.44;;;10.12;100.00
18167;BME280;9208;42.688;23.404;2022-10-16T04:30:50;96227.75;;;10.05;100.00
18167;BME280;9208;42.688;23.404;2022-10-16T04:33:15;96230.84;;;10.17;100.00
18167;BME280;9208;42.688;23.404;2022-10-16T04:35:41;96232.50;;;10.23;100.00
18167;BME280;9208;42.688;23.404;2022-10-16T04:38:06;96238.13;;;10.19;100.00
18167;BME280;9208;42.688;23.404;2022-10-16T04:40:32;96243.44;;;10.05;100.00
18167;BME280;9208;42.688;23.404;2022-10-16T04:42:58;96247.50;;;10.00;100.00
18167;BME280;9208;42.688;23.404;2022-10-16T04:45:27;96251.47;;;9.99;100.00
18167;BME280;9208;42.688;23.404;2022-10-16T04:47:52;96258.22;;;10.17;100.00
18167;BME280;9208;42.688;23.404;2022-10-16T04:50:18;96255.16;;;10.14;100.00
18167;BME280;9208;42.688;23.404;2022-10-16T04:52:43;96260.03;;;10.10;100.00
18167;BME280;9208;42.688;23.404;2022-10-16T04:55:08;96260.81;;;10.11;100.00
18167;BME280;9208;42.688;23.404;2022-10-16T04:57:34;96258.97;;;10.08;100.00
18167;BME280;9208;42.688;23.404;2022-10-16T05:00:00;96262.91;;;10.07;100.00
18167;BME280;9208;42.688;23.404;2022-10-16T05:02:25;96273.22;;;10.03;100.00
18167;BME280;9208;42.688;23.404;2022-10-16T05:04:51;96273.44;;;10.08;100.00
18167;BME280;9208;42.688;23.404;2022-10-16T05:07:17;96278.00;;;10.12;100.00
18167;BME280;9208;42.688;23.404;2022-10-16T05:09:42;96274.75;;;10.04;100.00
18167;BME280;9208;42.688;23.404;2022-10-16T05:12:08;96279.81;;;10.05;100.00
18167;BME280;9208;42.688;23.404;2022-10-16T05:14:33;96277.66;;;10.00;100.00
18167;BME280;9208;42.688;23.404;2022-10-16T05:17:00;96282.66;;;9.93;100.00
18167;BME280;9208;42.688;23.404;2022-10-16T05:19:25;96288.16;;;10.02;100.00
18167;BME280;9208;42.688;23.404;2022-10-16T05:21:51;96289.66;;;10.03;100.00
18167;BME280;9208;42.688;23.404;2022-10-16T05:24:16;96290.91;;;10.02;100.00
18167;BME280;9208;42.688;23.404;2022-10-16T05:26:42;96293.50;;;10.05;100.00
18167;BME280;9208;42.688;23.404;2022-10-16T05:29:07;96292.09;;;9.92;100.00
18167;BME280;9208;42.688;23.404;2022-10-16T05:31:33;96292.22;;;9.97;100.00
18167;BME280;9208;42.688;23.404;2022-10-16T05:33:59;96282.22;;;10.03;100.00
18167;BME280;9208;42.688;23.404;2022-10-16T05:36:25;96292.16;;;10.10;100.00
18167;BME280;9208;42.688;23.404;2022-10-16T05:38:51;96284.25;;;10.12;100.00
18167;BME280;9208;42.688;23.404;2022-10-16T05:41:17;96284.56;;;10.14;100.00
18167;BME280;9208;42.688;23.404;2022-10-16T05:43:47;96293.53;;;10.14;100.00
18167;BME280;9208;42.688;23.404;2022-10-16T05:46:13;96294.91;;;10.19;100.00
18167;BME280;9208;42.688;23.404;2022-10-16T05:48:39;96295.66;;;10.19;100.00
18167;BME280;9208;42.688;23.404;2022-10-16T05:51:09;96308.75;;;10.15;100.00
18167;BME280;9208;42.688;23.404;2022-10-16T05:53:37;96304.34;;;10.09;100.00
18167;BME280;9208;42.688;23.404;2022-10-16T05:56:03;96305.09;;;10.18;100.00
18167;BME280;9208;42.688;23.404;2022-10-16T05:58:34;96313.66;;;10.30;100.00
18167;BME280;9208;42.688;23.404;2022-10-16T06:01:07;96320.50;;;10.34;100.00
18167;BME280;9208;42.688;23.404;2022-10-16T06:03:34;96323.69;;;10.32;100.00
18167;BME280;9208;42.688;23.404;2022-10-16T06:06:10;96324.47;;;10.42;100.00
18167;BME280;9208;42.688;23.404;2022-10-16T06:08:36;96332.53;;;10.37;100.00
18167;BME280;9208;42.688;23.404;2022-10-16T06:11:07;96326.44;;;10.42;100.00
18167;BME280;9208;42.688;23.404;2022-10-16T06:13:33;96325.38;;;10.39;100.00
18167;BME280;9208;42.688;23.404;2022-10-16T06:16:00;96334.06;;;10.47;100.00
18167;BME280;9208;42.688;23.404;2022-10-16T06:18:26;96330.25;;;10.53;100.00
18167;BME280;9208;42.688;23.404;2022-10-16T06:20:52;96336.06;;;10.55;100.00
18167;BME280;9208;42.688;23.404;2022-10-16T06:23:18;96336.81;;;10.56;100.00
18167;BME280;9208;42.688;23.404;2022-10-16T06:25:43;96339.56;;;10.65;100.00
18167;BME280;9208;42.688;23.404;2022-10-16T06:28:08;96341.84;;;10.75;100.00
18167;BME280;9208;42.688;23.404;2022-10-16T06:30:34;96351.47;;;10.71;100.00
18167;BME280;9208;42.688;23.404;2022-10-16T06:32:59;96352.69;;;10.88;100.00
18167;BME280;9208;42.688;23.404;2022-10-16T06:35:24;96357.25;;;10.82;100.00
18167;BME280;9208;42.688;23.404;2022-10-16T06:37:52;96353.59;;;10.85;100.00
18167;BME280;9208;42.688;23.404;2022-10-16T06:40:18;96356.50;;;10.90;100.00
18167;BME280;9208;42.688;23.404;2022-10-16T06:42:43;96359.53;;;10.92;100.00
18167;BME280;9208;42.688;23.404;2022-10-16T06:45:09;96367.00;;;10.92;100.00
18167;BME280;9208;42.688;23.404;2022-10-16T06:47:35;96362.44;;;10.98;100.00
18167;BME280;9208;42.688;23.404;2022-10-16T06:50:00;96359.69;;;10.98;100.00
18167;BME280;9208;42.688;23.404;2022-10-16T06:52:28;96365.81;;;11.02;100.00
18167;BME280;9208;42.688;23.404;2022-10-16T06:54:53;96372.81;;;11.12;100.00
18167;BME280;9208;42.688;23.404;2022-10-16T06:57:19;96370.97;;;11.09;100.00
18167;BME280;9208;42.688;23.404;2022-10-16T06:59:44;96373.41;;;11.16;100.00
18167;BME280;9208;42.688;23.404;2022-10-16T07:02:09;96386.50;;;11.21;100.00
18167;BME280;9208;42.688;23.404;2022-10-16T07:04:36;96381.75;;;11.21;100.00
18167;BME280;9208;42.688;23.404;2022-10-16T07:07:01;96378.56;;;11.23;100.00
18167;BME280;9208;42.688;23.404;2022-10-16T07:09:27;96385.59;;;11.33;100.00
18167;BME280;9208;42.688;23.404;2022-10-16T07:11:52;96380.22;;;11.38;100.00
18167;BME280;9208;42.688;23.404;2022-10-16T07:14:20;96386.16;;;11.46;100.00
18167;BME280;9208;42.688;23.404;2022-10-16T07:16:46;96378.25;;;11.48;100.00
18167;BME280;9208;42.688;23.404;2022-10-16T07:19:12;96379.16;;;11.45;100.00
18167;BME280;9208;42.688;23.404;2022-10-16T07:21:40;96389.19;;;11.57;100.00
18167;BME280;9208;42.688;23.404;2022-10-16T07:24:07;96385.41;;;11.63;100.00
18167;BME280;9208;42.688;23.404;2022-10-16T07:26:36;96388.56;;;11.71;100.00
18167;BME280;9208;42.688;23.404;2022-10-16T07:29:05;96392.81;;;11.81;100.00
18167;BME280;9208;42.688;23.404;2022-10-16T07:31:31;96396.00;;;11.88;100.00
18167;BME280;9208;42.688;23.404;2022-10-16T07:34:00;96386.66;;;11.95;100.00
18167;BME280;9208;42.688;23.404;2022-10-16T07:36:26;96393.94;;;12.07;100.00
18167;BME280;9208;42.688;23.404;2022-10-16T07:38:51;96392.41;;;12.15;100.00
18167;BME280;9208;42.688;23.404;2022-10-16T07:41:18;96390.34;;;12.24;100.00
18167;BME280;9208;42.688;23.404;2022-10-16T07:43:48;96394.47;;;12.29;100.00
18167;BME280;9208;42.688;23.404;2022-10-16T07:46:15;96397.03;;;12.32;100.00
18167;BME280;9208;42.688;23.404;2022-10-16T07:48:41;96396.66;;;12.48;100.00
18167;BME280;9208;42.688;23.404;2022-10-16T07:51:11;96394.97;;;12.51;100.00
18167;BME280;9208;42.688;23.404;2022-10-16T07:53:37;96391.25;;;12.54;100.00
18167;BME280;9208;42.688;23.404;2022-10-16T07:56:04;96390.28;;;12.66;100.00
18167;BME280;9208;42.688;23.404;2022-10-16T07:58:31;96391.44;;;12.74;100.00
18167;BME280;9208;42.688;23.404;2022-10-16T08:00:57;96387.13;;;12.82;100.00
18167;BME280;9208;42.688;23.404;2022-10-16T08:03:23;96387.53;;;12.89;100.00
18167;BME280;9208;42.688;23.404;2022-10-16T08:05:49;96386.88;;;12.94;100.00
18167;BME280;9208;42.688;23.404;2022-10-16T08:08:16;96394.16;;;13.06;100.00
18167;BME280;9208;42.688;23.404;2022-10-16T08:10:42;96394.94;;;13.21;100.00
18167;BME280;9208;42.688;23.404;2022-10-16T08:13:08;96390.78;;;13.26;100.00
18167;BME280;9208;42.688;23.404;2022-10-16T08:15:33;96391.06;;;13.28;100.00
18167;BME280;9208;42.688;23.404;2022-10-16T08:18:01;96386.41;;;13.34;100.00
18167;BME280;9208;42.688;23.404;2022-10-16T08:20:29;96386.50;;;13.39;100.00
18167;BME280;9208;42.688;23.404;2022-10-16T08:22:55;96388.72;;;13.50;100.00
18167;BME280;9208;42.688;23.404;2022-10-16T08:25:24;96390.78;;;13.55;100.00
18167;BME280;9208;42.688;23.404;2022-10-16T08:27:50;96385.78;;;13.68;100.00
18167;BME280;9208;42.688;23.404;2022-10-16T08:30:17;96378.25;;;13.83;100.00
18167;BME280;9208;42.688;23.404;2022-10-16T08:32:42;96376.63;;;13.91;100.00
18167;BME280;9208;42.688;23.404;2022-10-16T08:35:10;96378.44;;;13.94;100.00
18167;BME280;9208;42.688;23.404;2022-10-16T08:37:36;96377.28;;;14.00;100.00
18167;BME280;9208;42.688;23.404;2022-10-16T08:40:03;96371.16;;;14.11;100.00
18167;BME280;9208;42.688;23.404;2022-10-16T08:45:39;96389.22;;;14.41;94.17
18167;BME280;9208;42.688;23.404;2022-10-16T08:48:24;96386.81;;;14.48;91.84
18167;BME280;9208;42.688;23.404;2022-10-16T08:50:52;96389.66;;;14.54;90.90
18167;BME280;9208;42.688;23.404;2022-10-16T08:53:28;96386.84;;;14.68;90.00
18167;BME280;9208;42.688;23.404;2022-10-16T08:55:56;96393.66;;;14.73;89.60
18167;BME280;9208;42.688;23.404;2022-10-16T08:58:27;96395.19;;;14.74;89.23
18167;BME280;9208;42.688;23.404;2022-10-16T09:00:56;96382.50;;;14.82;89.29
18167;BME280;9208;42.688;23.404;2022-10-16T09:03:44;96395.47;;;14.96;88.32
18167;BME280;9208;42.688;23.404;2022-10-16T09:06:31;96400.84;;;15.05;86.69
18167;BME280;9208;42.688;23.404;2022-10-16T09:14:12;96401.31;;;15.23;82.71
18167;BME280;9208;42.688;23.404;2022-10-16T09:16:47;96398.16;;;15.30;82.52
18167;BME280;9208;42.688;23.404;2022-10-16T09:19:31;96401.81;;;15.42;80.89
18167;BME280;9208;42.688;23.404;2022-10-16T09:22:04;96395.09;;;15.48;80.60
18167;BME280;9208;42.688;23.404;2022-10-16T09:24:36;96400.47;;;15.57;80.52
18167;BME280;9208;42.688;23.404;2022-10-16T09:27:02;96397.03;;;15.68;81.15
18167;BME280;9208;42.688;23.404;2022-10-16T09:29:27;96396.13;;;15.76;80.86
18167;BME280;9208;42.688;23.404;2022-10-16T09:31:57;96382.25;;;15.71;80.76
18167;BME280;9208;42.688;23.404;2022-10-16T09:34:43;96391.34;;;15.77;80.94
18167;BME280;9208;42.688;23.404;2022-10-16T09:37:14;96394.47;;;15.90;81.04
18167;BME280;9208;42.688;23.404;2022-10-16T09:39:50;96388.78;;;15.99;80.29
18167;BME280;9208;42.688;23.404;2022-10-16T09:42:36;96395.66;;;16.09;79.64
18167;BME280;9208;42.688;23.404;2022-10-16T09:45:04;96397.00;;;16.19;79.26
18167;BME280;9208;42.688;23.404;2022-10-16T09:47:31;96397.56;;;16.28;78.36
18167;BME280;9208;42.688;23.404;2022-10-16T09:50:03;96389.78;;;16.32;77.67
18167;BME280;9208;42.688;23.404;2022-10-16T09:52:32;96388.56;;;16.39;77.34
18167;BME280;9208;42.688;23.404;2022-10-16T09:55:09;96392.19;;;16.45;77.21
18167;BME280;9208;42.688;23.404;2022-10-16T09:57:47;96378.75;;;16.38;77.66
18167;BME280;9208;42.688;23.404;2022-10-16T10:00:16;96389.94;;;16.49;77.04
18167;BME280;9208;42.688;23.404;2022-10-16T10:02:43;96390.25;;;16.56;76.74
18167;BME280;9208;42.688;23.404;2022-10-16T10:05:26;96373.13;;;16.58;77.09
18167;BME280;9208;42.688;23.404;2022-10-16T10:08:05;96372.66;;;16.65;77.27
18167;BME280;9208;42.688;23.404;2022-10-16T10:10:41;96381.78;;;16.76;76.92
18167;BME280;9208;42.688;23.404;2022-10-16T10:13:21;96376.53;;;16.84;76.33
18167;BME280;9208;42.688;23.404;2022-10-16T10:15:47;96376.81;;;16.91;75.75
18167;BME280;9208;42.688;23.404;2022-10-16T10:18:18;96383.41;;;16.99;75.09
18167;BME280;9208;42.688;23.404;2022-10-16T10:20:45;96380.38;;;17.03;74.07
18167;BME280;9208;42.688;23.404;2022-10-16T10:23:21;96401.81;;;17.02;71.45
18167;BME280;9208;42.688;23.404;2022-10-16T10:25:58;96411.38;;;17.07;70.59
18167;BME280;9208;42.688;23.404;2022-10-16T10:31:20;96411.19;;;17.16;69.22
18167;BME280;9208;42.688;23.404;2022-10-16T10:36:34;96397.59;;;17.18;69.78
18167;BME280;9208;42.688;23.404;2022-10-16T10:39:13;96395.34;;;17.27;69.73
18167;BME280;9208;42.688;23.404;2022-10-16T10:42:12;96390.09;;;17.35;69.94
18167;BME280;9208;42.688;23.404;2022-10-16T10:44:52;96383.06;;;17.39;69.57
18167;BME280;9208;42.688;23.404;2022-10-16T10:55:38;96363.47;;;17.59;69.63
18167;BME280;9208;42.688;23.404;2022-10-16T11:06:05;96407.84;;;17.81;64.05
18167;BME280;9208;42.688;23.404;2022-10-16T11:08:39;96408.66;;;17.93;63.64
18167;BME280;9208;42.688;23.404;2022-10-16T11:16:22;96408.91;;;18.00;62.79
18167;BME280;9208;42.688;23.404;2022-10-16T11:21:44;96392.75;;;18.10;63.33
18167;BME280;9208;42.688;23.404;2022-10-16T11:24:23;96401.09;;;18.10;62.56
18167;BME280;9208;42.688;23.404;2022-10-16T11:26:51;96398.56;;;18.17;62.41
18167;BME280;9208;42.688;23.404;2022-10-16T11:29:29;96404.13;;;18.23;61.84
18167;BME280;9208;42.688;23.404;2022-10-16T11:32:23;96415.72;;;18.21;60.30
18167;BME280;9208;42.688;23.404;2022-10-16T11:34:57;96412.94;;;18.27;60.71
18167;BME280;9208;42.688;23.404;2022-10-16T11:37:31;96413.44;;;18.31;61.05
18167;BME280;9208;42.688;23.404;2022-10-16T11:40:27;96399.34;;;18.40;61.48
18167;BME280;9208;42.688;23.404;2022-10-16T11:42:54;96410.19;;;18.49;60.93
18167;BME280;9208;42.688;23.404;2022-10-16T11:45:30;96404.63;;;18.49;61.33
18167;BME280;9208;42.688;23.404;2022-10-16T11:48:45;96416.25;;;18.53;60.32
18167;BME280;9208;42.688;23.404;2022-10-16T11:50:53;96417.25;;;18.56;60.39
18167;BME280;9208;42.688;23.404;2022-10-16T11:56:04;96440.72;;;18.71;58.18
18167;BME280;9208;42.688;23.404;2022-10-16T11:58:52;96438.94;;;18.79;58.39
18167;BME280;9208;42.688;23.404;2022-10-16T12:07:02;96424.22;;;19.01;58.27
18167;BME280;9208;42.688;23.404;2022-10-16T12:09:31;96433.34;;;19.01;57.40
18167;BME280;9208;42.688;23.404;2022-10-16T12:11:57;96431.03;;;19.05;57.73
18167;BME280;9208;42.688;23.404;2022-10-16T12:17:01;96419.88;;;19.11;58.27
18167;BME280;9208;42.688;23.404;2022-10-16T12:19:29;96424.22;;;19.06;57.04
18167;BME280;9208;42.688;23.404;2022-10-16T12:21:58;96440.63;;;19.10;55.76
18167;BME280;9208;42.688;23.404;2022-10-16T12:24:37;96450.97;;;19.09;55.13
18167;BME280;9208;42.688;23.404;2022-10-16T12:27:06;96456.03;;;19.16;55.50
18167;BME280;9208;42.688;23.404;2022-10-16T12:29:42;96450.97;;;19.15;55.75
18167;BME280;9208;42.688;23.404;2022-10-16T12:32:41;96439.84;;;19.20;56.22
18167;BME280;9208;42.688;23.404;2022-10-16T12:35:22;96420.38;;;19.26;58.75
18167;BME280;9208;42.688;23.404;2022-10-16T12:37:48;96423.13;;;19.31;58.83
18167;BME280;9208;42.688;23.404;2022-10-16T12:40:32;96411.97;;;19.42;58.30
18167;BME280;9208;42.688;23.404;2022-10-16T12:42:59;96417.03;;;19.38;58.53
18167;BME280;9208;42.688;23.404;2022-10-16T12:45:35;96421.31;;;19.45;57.43
18167;BME280;9208;42.688;23.404;2022-10-16T12:48:04;96429.16;;;19.46;57.10
18167;BME280;9208;42.688;23.404;2022-10-16T12:50:43;96446.31;;;19.50;55.48
18167;BME280;9208;42.688;23.404;2022-10-16T12:53:24;96450.34;;;19.49;56.06
18167;BME280;9208;42.688;23.404;2022-10-16T13:02:06;96444.78;;;19.49;56.55
18167;BME280;9208;42.688;23.404;2022-10-16T13:04:43;96433.97;;;19.40;56.91
18167;BME280;9208;42.688;23.404;2022-10-16T13:10:32;96432.16;;;19.48;56.94
18167;BME280;9208;42.688;23.404;2022-10-16T13:21:22;96444.75;;;19.60;55.64
18167;BME280;9208;42.688;23.404;2022-10-16T13:29:34;96468.56;;;19.50;53.49
18167;BME280;9208;42.688;23.404;2022-10-16T13:32:01;96465.00;;;19.55;53.18
18167;BME280;9208;42.688;23.404;2022-10-16T13:34:32;96471.59;;;19.52;53.61
18167;BME280;9208;42.688;23.404;2022-10-16T13:36:57;96459.44;;;19.55;54.13
18167;BME280;9208;42.688;23.404;2022-10-16T13:39:27;96467.78;;;19.55;54.08
18167;BME280;9208;42.688;23.404;2022-10-16T13:42:05;96457.91;;;19.54;54.69
18167;BME280;9208;42.688;23.404;2022-10-16T13:44:39;96462.47;;;19.57;54.93
18167;BME280;9208;42.688;23.404;2022-10-16T13:47:05;96479.09;;;19.68;53.54
18167;BME280;9208;42.688;23.404;2022-10-16T13:49:30;96498.63;;;19.57;50.24
18167;BME280;9208;42.688;23.404;2022-10-16T13:51:59;96510.31;;;19.45;50.17
18167;BME280;9208;42.688;23.404;2022-10-16T13:54:26;96519.66;;;19.36;49.85
18167;BME280;9208;42.688;23.404;2022-10-16T13:56:54;96524.50;;;19.36;49.55
18167;BME280;9208;42.688;23.404;2022-10-16T13:59:34;96514.38;;;19.33;50.17
18167;BME280;9208;42.688;23.404;2022-10-16T14:02:05;96518.72;;;19.28;50.06
18167;BME280;9208;42.688;23.404;2022-10-16T14:04:39;96523.78;;;19.24;49.94
18167;BME280;9208;42.688;23.404;2022-10-16T14:07:05;96524.50;;;19.19;50.04
18167;BME280;9208;42.688;23.404;2022-10-16T14:09:33;96510.34;;;19.12;51.59
18167;BME280;9208;42.688;23.404;2022-10-16T14:12:03;96534.63;;;19.11;49.01
18167;BME280;9208;42.688;23.404;2022-10-16T14:14:41;96540.44;;;19.13;49.00
18167;BME280;9208;42.688;23.404;2022-10-16T14:17:23;96548.28;;;19.26;48.34
18167;BME280;9208;42.688;23.404;2022-10-16T14:19:51;96536.91;;;19.24;48.70
18167;BME280;9208;42.688;23.404;2022-10-16T14:22:38;96553.09;;;19.09;49.13
18167;BME280;9208;42.688;23.404;2022-10-16T14:30:27;96528.31;;;19.00;50.11
18167;BME280;9208;42.688;23.404;2022-10-16T14:33:05;96535.63;;;19.08;49.90
18167;BME280;9208;42.688;23.404;2022-10-16T14:35:38;96519.47;;;18.85;51.70
18167;BME280;9208;42.688;23.404;2022-10-16T14:38:06;96518.47;;;18.82;51.47
18167;BME280;9208;42.688;23.404;2022-10-16T14:40:36;96505.09;;;18.81;52.45
18167;BME280;9208;42.688;23.404;2022-10-16T14:43:05;96503.34;;;18.72;52.39
18167;BME280;9208;42.688;23.404;2022-10-16T14:45:33;96505.38;;;18.61;52.57